AirNav   Airventure
 
 341 users online  

55FL The Murphy Company Heliport
West Palm Beach, Florida, USA

GOING TO WEST PALM BEACH?


FAA INFORMATION EFFECTIVE 20 JULY 2017

Location

FAA Identifier: 55FL
Lat/Long: 26-41-14.2360N / 080-03-26.1490W
26-41.237267N / 080-03.435817W
26.6872878 / -80.0572636
(estimated)
Elevation: 15 ft. / 5 m (estimated)
Variation: 03W (1985)
From city: 2 miles SW of WEST PALM BEACH, FL
Time zone: UTC -4 (UTC -5 during Standard Time)
Zip code: 33405

Heliport Operations

Heliport use: Private use. Permission required prior to landing
Activation date: 02/1982
Control tower: no
ARTCC: MIAMI CENTER
FSS: MIAMI FLIGHT SERVICE STATION
Attendance: UNATNDD
Wind indicator: yes
Segmented circle: yes

Heliport Communications

WX ASOS at PBI (2.1 nm W): 123.75 (561-683-2548)
WX AWOS-3PT at LNA (6 nm S): 119.925 (561-964-0308)
WX AWOS-3 at F45 (13 nm NW): 119.975 (561-630-6932)
WX AWOS-3 at BCT (19 nm S): 121.125 (561-391-2696)

Nearby radio navigation aids

VOR radial/distance  VOR name  Freq  Var
PBIr078/1.6PALM BEACH VORTAC115.7003W
PHKr100/34.5PAHOKEE VOR/DME115.4000E
FLLr015/37.3FORT LAUDERDALE VOR/DME114.4006W

 
NDB name  Hdg/Dist  Freq  Var  ID
UNITED135/20.040503WUTX ..- - -..-

Heliport Services

Runway Information

Helipad H1

Dimensions: 50 x 50 ft. / 15 x 15 m
DIMENSIONS & SFC CMPSN UNKNOWN.
Surface: concrete
Traffic pattern: leftleft

Heliport Ownership and Management from official FAA records

Ownership: Privately-owned
Owner: MARTIN E. MURPHY
1615 CLARE AVE
WEST PALM BEACH, FL 33401
Phone 561-655-3634
EXT 119
Manager: MARTIN E. MURPHY
1615 CLARE AVE
WEST PALM BEACH, FL 33401
Phone 561-655-3634
EXT 119

Heliport Operational Statistics

Aircraft based on the field: 1
Helicopters: 1
    

Instrument Procedures

There are no published instrument procedures at 55FL.

Some nearby airports with instrument procedures:

KPBI - Palm Beach International Airport (2 nm W)
KLNA - Palm Beach County Park Airport (6 nm S)
F45 - North Palm Beach County General Aviation Airport (13 nm NW)
KBCT - Boca Raton Airport (19 nm S)
06FA - William P Gwinn Airport (20 nm NW)
 
Loc | Ops | Rwys | IFR | FBO | Links
Com | Nav | Svcs | Stats | Notes


 
Area around 55FL (The Murphy Company Heliport)
 
Road maps at: MapQuest Bing Google
 
Aerial photo
No photo
 
Sectional chart

 
Airport distance calculator
Flying to The Murphy Company Heliport? Find the distance to fly.

From to 55FL

Sunrise and sunset
Times for 26-Jul-2017
 Local
(UTC-4)
 Zulu
(UTC)
Morning civil twilight06:1810:18
Sunrise06:4310:43
Sunset20:1100:11
Evening civil twilight20:3600:36

Current date and time
Zulu (UTC)  26-Jul-2017 09:40:22
Local (UTC-4)  26-Jul-2017 05:40:22
 
METAR
KPBI 
2nm W 
260853Z 13005KT 10SM FEW020 SCT250 27/24 A3006 RMK AO2 SLP180 T02720244 56015 $
KLNA 
6nm S 
260915Z AUTO 13004KT 10SM CLR 29/26 A3007 RMK AO2 T02870258
KBCT 
18nm S 
260247Z 16004KT 10SM SCT018 SCT025 29/26 A3011 RMK LAST
TAF
KPBI 
2nm W 
260520Z 2606/2706 VRB03KT P6SM FEW025 SCT250 FM261600 10010KT P6SM SCT030 SCT060
NOTAMs
Click for the latest NOTAMs
NOTAMs are issued by the DoD/FAA and will open in a separate window not controlled by AirNav.

 

 
 

Would you like to see your business listed on this page?

 If your business provides an interesting product or service to pilots, flight crews, aircraft, or users of the The Murphy Company Heliport, you should consider listing it here.  To start the listing process, click on the button below
 
Add a business
 

Other Pages about The Murphy Company Heliport

Update a link
 
Copyright © AirNav, LLC. All rights reserved. Privacy Policy  Contact